Time;durP1;ratioP1;P1;durP2;ratioP2;P2;SDS_P1;SDS_P2;PMS_P1;PMS_P2;Temp;Humidity;BMP_temperature;BMP_pressure;BME280_temperature;BME280_humidity;BME280_pressure;Samples;Min_cycle;Max_cycle;Signal;HPM_P1;HPM_P2
2023/05/30 00:02:09;;;;;;;7.43;3.47;;;;;;;16.61;nan;-23956.31;5031277;28;20576;-68
2023/05/30 00:04:35;;;;;;;4.28;2.92;;;;;;;16.90;nan;-23642.22;5034098;28;20198;-69
2023/05/30 00:07:01;;;;;;;4.65;3.35;;;;;;;16.87;nan;-23319.47;5032809;28;20667;-70
2023/05/30 00:09:27;;;;;;;4.60;3.00;;;;;;;16.57;nan;-23633.59;5031299;28;20246;-70
2023/05/30 00:11:54;;;;;;;6.95;3.47;;;;;;;16.59;nan;-23634.16;5032731;28;20198;-69
2023/05/30 00:14:20;;;;;;;6.88;3.40;;;;;;;16.56;nan;-23311.56;5030547;28;20194;-68
2023/05/30 00:16:46;;;;;;;5.15;3.17;;;;;;;16.76;nan;-23960.44;5031192;28;20171;-70
2023/05/30 00:19:13;;;;;;;5.07;3.28;;;;;;;16.79;nan;-24283.09;5031483;28;20187;-67
2023/05/30 00:21:39;;;;;;;7.63;3.20;;;;;;;16.63;nan;-24278.75;5031539;28;20207;-68
2023/05/30 00:24:04;;;;;;;5.18;3.20;;;;;;;16.54;nan;-24278.13;5031091;28;20609;-69
2023/05/30 00:26:33;;;;;;;6.72;2.95;;;;;;;16.85;nan;-23962.91;5030766;28;20207;-70
2023/05/30 00:28:59;;;;;;;5.47;3.28;;;;;;;16.78;nan;-23961.13;5030235;28;20238;-71
2023/05/30 00:31:24;;;;;;;5.22;3.63;;;;;;;16.46;nan;-24274.00;5030398;28;20666;-71
2023/05/30 00:33:50;;;;;;;5.93;3.50;;;;;;;16.45;nan;-24273.72;5031462;28;20249;-67
2023/05/30 00:36:15;;;;;;;5.30;3.40;;;;;;;16.47;nan;-24276.16;5031686;28;20179;-70
2023/05/30 00:38:41;;;;;;;4.75;3.00;;;;;;;16.85;nan;-23962.78;5030447;28;20191;-68
2023/05/30 00:41:06;;;;;;;5.00;3.20;;;;;;;16.91;nan;-23964.41;5031363;28;20187;-68
2023/05/30 00:43:32;;;;;;;6.18;3.53;;;;;;;16.86;nan;-24284.91;5029788;28;20186;-66
2023/05/30 00:45:57;;;;;;;5.82;3.40;;;;;;;16.72;nan;-24281.13;5031171;28;20207;-68
2023/05/30 00:48:24;;;;;;;5.57;3.20;;;;;;;16.78;nan;-24282.94;5030334;28;20179;-67
2023/05/30 00:50:51;;;;;;;5.30;3.42;;;;;;;16.78;nan;-24284.69;5029441;28;20579;-70
2023/05/30 00:53:19;;;;;;;8.23;4.00;;;;;;;16.79;nan;-24285.13;5030682;28;20187;-71
2023/05/30 00:55:45;;;;;;;6.53;3.58;;;;;;;16.61;nan;-24279.94;5030465;28;20183;-70
2023/05/30 00:58:11;;;;;;;7.13;3.47;;;;;;;16.89;nan;-24287.63;5030472;28;20187;-69
2023/05/30 01:00:38;;;;;;;8.20;3.88;;;;;;;16.88;nan;-24285.59;5031168;28;20690;-69
2023/05/30 01:03:04;;;;;;;4.93;3.03;;;;;;;16.90;nan;-24288.06;5031202;28;20183;-69
2023/05/30 01:05:31;;;;;;;7.43;3.20;;;;;;;16.71;nan;-24280.84;5031722;28;20195;-65
2023/05/30 01:07:56;;;;;;;7.15;3.22;;;;;;;16.65;nan;-24279.31;5033181;28;20171;-67
2023/05/30 01:10:23;;;;;;;5.97;3.35;;;;;;;16.63;nan;-24280.50;5030509;28;20657;-67
2023/05/30 01:13:23;;;;;;;6.95;3.50;;;;;;;16.52;nan;-24277.56;5030447;28;20642;-67
2023/05/30 01:15:53;;;;;;;6.90;3.25;;;;;;;16.75;nan;-24283.88;5024049;28;20187;-68
2023/05/30 01:18:32;;;;;;;4.72;3.35;;;;;;;16.95;nan;-24289.31;5031178;28;20618;-69
2023/05/30 01:21:00;;;;;;;9.80;3.78;;;;;;;16.73;nan;-24283.44;5024780;28;20689;-70
2023/05/30 01:23:38;;;;;;;6.10;3.53;;;;;;;16.63;nan;-24280.66;5030149;28;20537;-68
2023/05/30 01:26:37;;;;;;;11.35;3.42;;;;;;;16.88;nan;-24287.34;5029336;28;20214;-70
2023/05/30 01:29:04;;;;;;;6.45;3.47;;;;;;;16.70;nan;-24282.59;5031652;28;20182;-67
2023/05/30 01:31:32;;;;;;;7.30;3.53;;;;;;;16.81;nan;-24285.53;5035527;28;20175;-69
2023/05/30 01:33:58;;;;;;;9.27;3.85;;;;;;;16.66;nan;-24281.50;5034386;28;20269;-69
2023/05/30 01:36:26;;;;;;;6.45;3.42;;;;;;;16.68;nan;-24281.91;5033712;28;20191;-68
2023/05/30 01:38:51;;;;;;;7.68;3.42;;;;;;;16.79;nan;-24284.97;5031517;28;20654;-71
2023/05/30 01:41:52;;;;;;;7.63;3.42;;;;;;;16.84;nan;-24286.22;5033984;28;20191;-66
2023/05/30 01:44:46;;;;;;;4.85;3.20;;;;;;;16.86;nan;-24286.78;5021809;28;20213;-70
2023/05/30 01:47:25;;;;;;;4.78;3.15;;;;;;;16.58;nan;-24279.13;5024058;28;20261;-66
2023/05/30 01:49:56;;;;;;;5.85;3.10;;;;;;;16.90;nan;-24287.91;5033079;28;20306;-69
2023/05/30 01:52:27;;;;;;;5.88;3.70;;;;;;;16.81;nan;-24285.53;5032604;28;20191;-68
2023/05/30 01:54:58;;;;;;;6.47;3.50;;;;;;;16.68;nan;-24280.03;5026622;28;20258;-68
2023/05/30 01:57:25;;;;;;;5.88;3.33;;;;;;;16.58;nan;-24279.25;5034287;28;20670;-66
2023/05/30 01:59:52;;;;;;;5.13;3.30;;;;;;;16.62;nan;-24280.22;5033709;28;20284;-70
2023/05/30 02:02:19;;;;;;;5.78;2.65;;;;;;;16.51;nan;-23953.72;5028511;28;20190;-68
2023/05/30 02:04:44;;;;;;;3.67;2.50;;;;;;;16.61;nan;-23956.47;5033249;28;20187;-71
2023/05/30 02:07:10;;;;;;;6.68;3.05;;;;;;;16.82;nan;-22996.34;5035705;28;20199;-66
2023/05/30 02:09:36;;;;;;;3.35;2.70;;;;;;;16.63;nan;-22991.56;5035537;28;20262;-69
2023/05/30 02:12:02;;;;;;;4.57;2.95;;;;;;;16.53;nan;-23632.41;5033732;28;20179;-70
2023/05/30 02:14:28;;;;;;;3.60;2.22;;;;;;;16.51;nan;-23310.13;5033926;28;20183;-69
2023/05/30 02:16:55;;;;;;;5.80;2.80;;;;;;;16.38;nan;-22985.09;5033071;28;20183;-69
2023/05/30 02:19:20;;;;;;;3.83;2.70;;;;;;;16.56;nan;-23311.44;5033307;28;20261;-70
2023/05/30 02:21:45;;;;;;;4.20;2.67;;;;;;;16.65;nan;-22992.06;5033160;28;20655;-68
2023/05/30 02:24:12;;;;;;;3.00;2.40;;;;;;;16.12;nan;-23299.94;5032848;28;20183;-69
2023/05/30 02:26:37;;;;;;;4.05;2.58;;;;;;;16.29;nan;-23304.56;5033160;28;20256;-70
2023/05/30 02:29:03;;;;;;;3.85;2.40;;;;;;;16.36;nan;-22662.84;5033447;28;20184;-69
2023/05/30 02:31:28;;;;;;;3.20;2.25;;;;;;;16.64;nan;-22669.94;5033122;28;20245;-69
2023/05/30 02:33:54;;;;;;;3.17;2.22;;;;;;;16.55;nan;-22023.88;5032318;28;20532;-70
2023/05/30 02:36:19;;;;;;;4.50;2.42;;;;;;;16.62;nan;-22347.41;5033918;28;20662;-70
2023/05/30 02:38:46;;;;;;;3.47;2.35;;;;;;;16.30;nan;-22661.44;5033240;28;20190;-67
2023/05/30 02:41:11;;;;;;;3.45;2.40;;;;;;;16.54;nan;-22023.63;5032922;28;20183;-67
2023/05/30 02:43:36;;;;;;;3.95;2.67;;;;;;;16.46;nan;-22665.25;5034319;28;20322;-67
2023/05/30 02:46:04;;;;;;;3.58;2.65;;;;;;;16.22;nan;-22659.41;5032734;28;20219;-69
2023/05/30 02:48:29;;;;;;;3.75;2.30;;;;;;;16.21;nan;-22659.03;5033717;28;20176;-67
2023/05/30 02:50:55;;;;;;;3.88;2.42;;;;;;;16.40;nan;-22663.72;5033673;28;20194;-70
2023/05/30 02:53:21;;;;;;;3.28;2.30;;;;;;;16.56;nan;-22024.00;5032676;28;20180;-68
2023/05/30 02:55:46;;;;;;;4.00;2.42;;;;;;;16.30;nan;-22017.94;5031303;28;20223;-70
2023/05/30 02:58:13;;;;;;;3.30;2.25;;;;;;;16.48;nan;-22665.88;5032714;28;20659;-71
2023/05/30 03:00:39;;;;;;;4.75;2.63;;;;;;;16.57;nan;-22668.16;5033084;28;20306;-69
2023/05/30 03:03:05;;;;;;;3.78;2.63;;;;;;;16.45;nan;-22021.34;5033108;28;20210;-70
2023/05/30 03:05:30;;;;;;;5.28;2.63;;;;;;;16.29;nan;-22661.19;5033283;28;20227;-70
2023/05/30 03:07:56;;;;;;;2.60;2.13;;;;;;;16.15;nan;-23300.75;5031883;28;20183;-67
2023/05/30 03:10:21;;;;;;;4.45;2.50;;;;;;;16.44;nan;-23630.13;5036955;28;20191;-69
2023/05/30 03:12:47;;;;;;;3.88;2.50;;;;;;;16.20;nan;-23623.66;5031935;28;20191;-70
2023/05/30 03:15:12;;;;;;;4.03;2.90;;;;;;;16.17;nan;-23944.38;5032609;28;20259;-68
2023/05/30 03:17:38;;;;;;;5.18;2.90;;;;;;;16.21;nan;-23623.91;5032688;28;20654;-69
2023/05/30 03:20:06;;;;;;;5.53;3.33;;;;;;;16.46;nan;-23630.53;5032343;28;20566;-69
2023/05/30 03:22:33;;;;;;;4.95;3.00;;;;;;;16.39;nan;-23950.28;5032600;28;20194;-70
2023/05/30 03:24:58;;;;;;;5.47;2.58;;;;;;;16.20;nan;-22980.44;5033536;28;20229;-71
2023/05/30 03:27:24;;;;;;;4.65;2.80;;;;;;;16.33;nan;-22983.81;5032554;28;20294;-70
2023/05/30 03:29:49;;;;;;;4.47;3.00;;;;;;;16.57;nan;-22668.03;5030878;28;20183;-70
2023/05/30 03:32:15;;;;;;;7.30;2.83;;;;;;;16.24;nan;-22659.78;5030571;28;20179;-69
2023/05/30 03:34:41;;;;;;;4.22;2.85;;;;;;;16.23;nan;-22659.53;5031761;28;20187;-70
2023/05/30 03:37:06;;;;;;;4.10;2.78;;;;;;;16.20;nan;-22658.78;5032433;28;20263;-72
2023/05/30 03:39:32;;;;;;;4.43;2.70;;;;;;;16.19;nan;-22658.53;5032043;28;20205;-67
2023/05/30 03:41:57;;;;;;;3.60;2.67;;;;;;;16.27;nan;-23304.03;5031539;28;20258;-69
2023/05/30 03:44:23;;;;;;;4.57;2.83;;;;;;;16.21;nan;-22659.16;5032327;28;20183;-69
2023/05/30 03:46:48;;;;;;;3.53;2.80;;;;;;;16.52;nan;-22345.03;5031289;28;20687;-68
2023/05/30 03:49:13;;;;;;;4.07;2.65;;;;;;;16.42;nan;-22342.44;5064080;28;20186;-70
2023/05/30 03:51:39;;;;;;;4.30;2.50;;;;;;;16.24;nan;-21694.56;5030699;28;20232;-72
2023/05/30 03:54:04;;;;;;;4.00;2.55;;;;;;;16.49;nan;-22344.28;5030318;28;20179;-68
2023/05/30 03:56:30;;;;;;;4.10;2.80;;;;;;;16.44;nan;-22664.88;5031612;28;20198;-70
2023/05/30 03:58:55;;;;;;;6.97;2.53;;;;;;;16.26;nan;-22982.13;5030963;28;20183;-70
2023/05/30 04:01:22;;;;;;;5.97;2.97;;;;;;;16.34;nan;-23305.75;5032035;28;20338;-70
2023/05/30 04:03:47;;;;;;;4.38;2.58;;;;;;;16.69;nan;-22671.19;5032144;28;20659;-71
2023/05/30 04:06:13;;;;;;;4.55;2.63;;;;;;;16.82;nan;-21386.03;5031062;28;20284;-69
2023/05/30 04:08:39;;;;;;;6.85;2.55;;;;;;;16.58;nan;-21380.56;5031260;28;20179;-71
2023/05/30 04:11:05;;;;;;;3.83;2.55;;;;;;;16.58;nan;-20414.53;5035525;28;20187;-67
2023/05/30 04:13:31;;;;;;;3.95;2.85;;;;;;;17.04;nan;-20424.41;5031585;28;20190;-68
2023/05/30 04:15:56;;;;;;;3.70;2.60;;;;;;;17.10;nan;-20103.31;5030983;28;20183;-71
2023/05/30 04:18:22;;;;;;;3.50;2.60;;;;;;;17.02;nan;-21068.53;5031851;28;20618;-69
2023/05/30 04:20:47;;;;;;;7.55;3.17;;;;;;;16.93;nan;-21388.69;5032143;28;20258;-68
2023/05/30 04:23:12;;;;;;;4.32;2.72;;;;;;;17.04;nan;-22035.53;5031553;28;20210;-68
2023/05/30 04:25:38;;;;;;;5.13;2.95;;;;;;;17.26;nan;-22040.75;5031615;28;20199;-70
2023/05/30 04:28:05;;;;;;;3.92;2.70;;;;;;;17.38;nan;-21721.31;5030889;28;20659;-69
2023/05/30 04:30:33;;;;;;;4.13;2.72;;;;;;;17.18;nan;-20749.81;5031283;28;20183;-70
2023/05/30 04:32:59;;;;;;;4.35;2.45;;;;;;;13.79;nan;-21316.34;5028694;28;20184;-68
2023/05/30 04:35:25;;;;;;;5.40;2.80;;;;;;;17.26;nan;-19461.56;5029621;28;20571;-71
2023/05/30 04:37:52;;;;;;;4.38;2.75;;;;;;;17.27;nan;-19139.19;5031539;28;20183;-69
2023/05/30 04:40:17;;;;;;;5.47;2.83;;;;;;;17.45;nan;-18174.56;5031736;28;20193;-70
2023/05/30 04:42:43;;;;;;;4.47;2.78;;;;;;;17.75;nan;-18179.75;5031859;28;20176;-70
2023/05/30 04:45:10;;;;;;;3.10;2.55;;;;;;;17.52;nan;-18175.72;5031843;28;20496;-69
2023/05/30 04:47:36;;;;;;;5.25;2.72;;;;;;;17.89;nan;-17213.13;5030875;28;20187;-67
2023/05/30 04:50:02;;;;;;;3.97;2.95;;;;;;;17.98;nan;-16245.13;5030212;28;20188;-69
2023/05/30 04:52:28;;;;;;;3.67;2.33;;;;;;;17.74;nan;-16887.72;5030898;28;20182;-69
2023/05/30 04:54:55;;;;;;;3.70;2.60;;;;;;;17.85;nan;-16243.19;5031131;28;20179;-70
2023/05/30 04:57:20;;;;;;;4.07;2.58;;;;;;;17.97;nan;-16568.09;5030997;28;20186;-69
2023/05/30 04:59:46;;;;;;;3.67;2.63;;;;;;;17.93;nan;-16567.56;5030355;28;20225;-69
2023/05/30 05:02:12;;;;;;;3.08;2.20;;;;;;;17.94;nan;-16890.88;5030461;28;20189;-68
2023/05/30 05:04:38;;;;;;;4.55;2.40;;;;;;;17.72;nan;-15594.94;5030161;28;20191;-67
2023/05/30 05:07:03;;;;;;;5.03;2.80;;;;;;;17.80;nan;-17211.66;5030512;28;20226;-70
2023/05/30 05:09:29;;;;;;;3.92;2.40;;;;;;;17.85;nan;-16566.28;5030161;28;20237;-69
2023/05/30 05:11:56;;;;;;;4.13;2.63;;;;;;;17.89;nan;-16243.72;5030982;28;20182;-69
2023/05/30 05:14:22;;;;;;;4.40;2.85;;;;;;;17.54;nan;-16238.69;5031134;28;20262;-70
2023/05/30 05:16:48;;;;;;;3.92;2.53;;;;;;;17.81;nan;-16242.53;5031002;28;20217;-70
2023/05/30 05:19:14;;;;;;;4.28;2.53;;;;;;;17.53;nan;-17207.31;5031204;28;20184;-66
2023/05/30 05:21:39;;;;;;;4.45;2.33;;;;;;;17.70;nan;-17210.09;5029410;28;20187;-69
2023/05/30 05:24:05;;;;;;;3.97;2.70;;;;;;;17.51;nan;-17529.88;5030677;28;20176;-72
2023/05/30 05:26:30;;;;;;;5.43;2.90;;;;;;;17.44;nan;-17851.59;5029745;28;20202;-72
2023/05/30 05:28:56;;;;;;;4.53;2.92;;;;;;;17.53;nan;-16884.47;5020595;28;20183;-71
2023/05/30 05:31:22;;;;;;;5.03;2.85;;;;;;;17.62;nan;-17531.81;5030456;28;20187;-70
2023/05/30 05:33:48;;;;;;;5.18;2.58;;;;;;;17.92;nan;-15597.75;5031258;28;20214;-68
2023/05/30 05:36:13;;;;;;;3.70;2.55;;;;;;;17.75;nan;-16564.75;5031007;28;20592;-68
2023/05/30 05:38:39;;;;;;;7.05;2.67;;;;;;;18.09;nan;-16570.00;5030857;28;20168;-67
2023/05/30 05:41:04;;;;;;;5.55;2.88;;;;;;;17.88;nan;-16243.56;5031051;28;20653;-67
2023/05/30 05:43:30;;;;;;;5.47;3.25;;;;;;;18.26;nan;-15278.81;5031031;28;20178;-67
2023/05/30 05:45:55;;;;;;;3.08;2.30;;;;;;;18.34;nan;-13985.56;5030420;28;20698;-66
2023/05/30 05:48:21;;;;;;;4.68;2.92;;;;;;;18.62;nan;-13017.09;5030744;28;20768;-67
2023/05/30 05:50:47;;;;;;;3.78;2.60;;;;;;;18.63;nan;-11073.19;5030784;28;20164;-71
2023/05/30 05:53:12;;;;;;;4.00;2.92;;;;;;;18.86;nan;-12695.28;5030944;28;20194;-66
2023/05/30 05:55:37;;;;;;;6.85;2.97;;;;;;;18.86;nan;-13019.31;5031337;28;20271;-69
2023/05/30 05:58:03;;;;;;;5.18;3.00;;;;;;;19.07;nan;-11400.25;5030691;28;20171;-70
2023/05/30 06:00:29;;;;;;;3.30;2.58;;;;;;;18.81;nan;-10750.09;5029166;28;20253;-69
2023/05/30 06:02:55;;;;;;;5.13;3.17;;;;;;;19.18;nan;-7831.22;5030517;28;20183;-71
2023/05/30 06:05:20;;;;;;;3.97;2.97;;;;;;;19.38;nan;-6531.91;5029735;28;20200;-71
2023/05/30 06:07:46;;;;;;;4.88;2.67;;;;;;;19.13;nan;-7181.75;5030348;28;20673;-72
2023/05/30 06:10:11;;;;;;;4.47;2.90;;;;;;;19.11;nan;-8805.00;5029482;28;20297;-66
2023/05/30 06:12:37;;;;;;;7.40;2.90;;;;;;;19.27;nan;-5882.22;5030493;28;20279;-67
2023/05/30 06:15:03;;;;;;;5.72;3.20;;;;;;;19.41;nan;-5881.91;5033879;28;20562;-71
2023/05/30 06:17:28;;;;;;;5.05;3.00;;;;;;;19.67;nan;-5881.34;5033402;28;20565;-68
2023/05/30 06:19:54;;;;;;;5.03;3.15;;;;;;;19.82;nan;-3278.16;5033597;28;20183;-67
2023/05/30 06:22:20;;;;;;;6.00;3.03;;;;;;;19.67;nan;-2302.69;5033601;28;20668;-68
2023/05/30 06:24:46;;;;;;;6.25;3.45;;;;;;;19.86;nan;-3603.38;5033054;28;20191;-69
2023/05/30 06:27:12;;;;;;;4.57;3.00;;;;;;;19.80;nan;-2301.69;5031498;28;20257;-71
2023/05/30 06:29:38;;;;;;;5.82;3.45;;;;;;;20.01;nan;-1322.78;5033207;28;20202;-70
2023/05/30 06:32:04;;;;;;;6.07;3.47;;;;;;;20.20;nan;2918.31;5033227;28;20222;-73
2023/05/30 06:34:29;;;;;;;6.93;3.20;;;;;;;20.24;nan;3898.09;5034454;28;20183;-70
2023/05/30 06:36:55;;;;;;;6.35;3.42;;;;;;;20.33;nan;3246.69;5033313;28;20194;-68
2023/05/30 06:39:20;;;;;;;6.75;3.67;;;;;;;20.50;nan;2270.34;5033287;28;20202;-69
2023/05/30 06:41:47;;;;;;;7.45;3.03;;;;;;;20.33;nan;5858.97;5032936;28;20195;-68
2023/05/30 06:44:12;;;;;;;6.30;3.22;;;;;;;20.43;nan;6841.41;5031910;28;20193;-68
2023/05/30 06:46:38;;;;;;;4.70;2.88;;;;;;;20.80;nan;6195.97;5033443;28;20215;-67
2023/05/30 06:49:03;;;;;;;9.07;3.22;;;;;;;20.54;nan;9132.97;5034553;28;20175;-70
2023/05/30 06:51:29;;;;;;;7.22;2.78;;;;;;;20.67;nan;2272.91;5033034;28;20187;-69
2023/05/30 06:53:54;;;;;;;6.47;3.10;;;;;;;20.76;nan;3580.63;5032338;28;20187;-69
2023/05/30 06:56:20;;;;;;;7.00;2.85;;;;;;;20.71;nan;12411.06;5034032;28;20198;-70
2023/05/30 06:58:45;;;;;;;8.70;2.70;;;;;;;20.84;nan;13397.81;5031799;28;20179;-73
2023/05/30 07:01:11;;;;;;;5.13;2.83;;;;;;;20.66;nan;17981.50;5031466;28;20230;-70
2023/05/30 07:03:36;;;;;;;3.75;2.33;;;;;;;20.60;nan;21917.50;5032238;28;20187;-69
2023/05/30 07:06:02;;;;;;;3.25;2.30;;;;;;;20.97;nan;23906.81;5032643;28;20276;-72
2023/05/30 07:08:28;;;;;;;3.38;2.30;;;;;;;21.00;nan;26540.09;5033124;28;20222;-71
2023/05/30 07:10:53;;;;;;;3.38;2.28;;;;;;;20.70;nan;27181.41;5032472;28;20666;-71
2023/05/30 07:13:19;;;;;;;3.50;2.30;;;;;;;20.56;nan;21915.34;5033545;28;20573;-69
2023/05/30 07:15:44;;;;;;;2.83;2.13;;;;;;;20.19;nan;20257.66;5036724;28;20183;-72
2023/05/30 07:18:10;;;;;;;3.45;2.30;;;;;;;20.38;nan;15347.66;5033091;28;20186;-71
2023/05/30 07:20:36;;;;;;;4.35;2.40;;;;;;;20.18;nan;16650.81;5031942;28;20547;-68
2023/05/30 07:23:01;;;;;;;4.00;2.38;;;;;;;20.34;nan;13053.88;5033316;28;20280;-72
2023/05/30 07:25:26;;;;;;;4.13;2.45;;;;;;;19.80;nan;11074.28;5033344;28;20627;-70
2023/05/30 07:27:52;;;;;;;4.32;2.63;;;;;;;19.75;nan;6825.97;5030674;28;20765;-71
2023/05/30 07:30:17;;;;;;;4.57;2.45;;;;;;;19.96;nan;9444.25;5032444;28;20187;-70
2023/05/30 07:32:43;;;;;;;4.88;2.80;;;;;;;20.20;nan;9124.00;5032383;28;20275;-69
2023/05/30 07:35:08;;;;;;;4.63;2.75;;;;;;;20.31;nan;10107.88;5031881;28;20803;-71
2023/05/30 07:37:37;;;;;;;4.13;2.72;;;;;;;20.62;nan;10443.81;5032136;28;20185;-72
2023/05/30 07:40:05;;;;;;;5.70;2.70;;;;;;;20.55;nan;9460.34;5032180;28;20194;-72
2023/05/30 07:42:31;;;;;;;4.00;2.70;;;;;;;20.73;nan;16344.19;5032938;28;20175;-70
2023/05/30 07:44:56;;;;;;;5.43;2.88;;;;;;;20.97;nan;17994.09;5031969;28;20286;-68
2023/05/30 07:47:22;;;;;;;5.57;2.65;;;;;;;21.20;nan;19316.97;5031358;28;20275;-69
2023/05/30 07:49:47;;;;;;;4.20;2.70;;;;;;;21.01;nan;17339.34;5032312;28;20258;-70
2023/05/30 07:52:13;;;;;;;3.65;2.85;;;;;;;21.33;nan;26228.59;5032002;28;20183;-72
2023/05/30 07:54:38;;;;;;;6.70;2.90;;;;;;;21.18;nan;30502.09;5031654;28;20180;-71
2023/05/30 07:57:05;;;;;;;3.85;2.45;;;;;;;21.14;nan;30170.41;5031750;28;20187;-69
2023/05/30 07:59:30;;;;;;;5.40;2.80;;;;;;;21.11;nan;23913.97;5031584;28;20214;-68
2023/05/30 08:01:56;;;;;;;4.05;2.50;;;;;;;20.81;nan;21270.31;5031014;28;20184;-68
2023/05/30 08:04:22;;;;;;;4.72;2.83;;;;;;;21.02;nan;14715.44;5032673;28;20726;-71
2023/05/30 08:06:47;;;;;;;4.57;2.70;;;;;;;20.83;nan;16020.09;5031921;28;20218;-69
2023/05/30 08:09:13;;;;;;;4.03;2.60;;;;;;;20.88;nan;10451.31;5032170;28;20183;-70
2023/05/30 08:11:38;;;;;;;4.53;2.88;;;;;;;21.04;nan;10455.81;5032049;28;20206;-71
2023/05/30 08:14:04;;;;;;;4.82;2.53;;;;;;;21.06;nan;7837.50;5032487;28;21192;-70
2023/05/30 08:16:30;;;;;;;3.58;2.28;;;;;;;21.26;nan;5224.47;5036448;28;20642;-69
2023/05/30 08:18:56;;;;;;;4.75;2.95;;;;;;;21.45;nan;5228.34;5031845;28;20192;-69
2023/05/30 08:21:22;;;;;;;4.10;2.45;;;;;;;21.24;nan;5224.03;5031403;28;20538;-71
2023/05/30 08:23:47;;;;;;;6.90;2.58;;;;;;;21.24;nan;6859.84;5031249;28;20245;-69
2023/05/30 08:26:13;;;;;;;5.18;2.80;;;;;;;21.50;nan;10469.16;5031630;28;20218;-69
2023/05/30 08:28:38;;;;;;;3.50;2.42;;;;;;;21.53;nan;15061.63;5030958;28;20543;-69
2023/05/30 08:31:05;;;;;;;4.38;2.90;;;;;;;21.51;nan;19001.63;5030829;28;20194;-70
2023/05/30 08:33:32;;;;;;;4.43;3.10;;;;;;;21.84;nan;23292.53;5031817;28;20176;-68
2023/05/30 08:35:57;;;;;;;4.53;2.75;;;;;;;21.76;nan;26581.63;5030822;28;20996;-70
2023/05/30 08:38:23;;;;;;;4.75;2.78;;;;;;;21.84;nan;25597.66;5030098;28;20183;-70
2023/05/30 08:40:51;;;;;;;3.47;2.50;;;;;;;22.16;nan;23637.41;5029131;28;20191;-69
2023/05/30 08:43:18;;;;;;;3.78;2.53;;;;;;;22.26;nan;23972.19;5032048;28;20678;-72
2023/05/30 08:45:43;;;;;;;5.95;2.78;;;;;;;22.00;nan;21325.47;5030816;28;20225;-71
2023/05/30 08:48:12;;;;;;;4.25;2.90;;;;;;;22.16;nan;23967.09;5031025;28;20623;-68
2023/05/30 08:50:40;;;;;;;3.85;2.78;;;;;;;22.34;nan;26943.03;5027374;28;20607;-71
2023/05/30 08:53:12;;;;;;;4.35;2.88;;;;;;;22.57;nan;29265.97;5031074;28;20179;-68
2023/05/30 08:55:43;;;;;;;4.38;2.97;;;;;;;22.66;nan;26630.97;5027315;28;20654;-71
2023/05/30 08:58:09;;;;;;;4.93;2.67;;;;;;;22.79;nan;23669.31;5022681;28;20233;-70
2023/05/30 09:00:35;;;;;;;3.58;2.58;;;;;;;22.69;nan;19710.22;5029057;28;20258;-70
2023/05/30 09:03:05;;;;;;;3.90;2.80;;;;;;;22.75;nan;16092.41;5031084;28;20183;-69
2023/05/30 09:05:33;;;;;;;3.85;3.05;;;;;;;22.69;nan;18722.75;5031903;28;20195;-69
2023/05/30 09:08:01;;;;;;;3.95;2.65;;;;;;;22.72;nan;23006.44;5030977;28;20183;-68
2023/05/30 09:10:27;;;;;;;4.60;3.10;;;;;;;22.69;nan;25642.63;5031829;28;20654;-68
2023/05/30 09:12:53;;;;;;;6.57;2.78;;;;;;;22.51;nan;25962.72;5029812;28;20190;-71
2023/05/30 09:15:19;;;;;;;4.43;2.83;;;;;;;22.73;nan;22347.72;5036161;28;20182;-70
2023/05/30 09:17:45;;;;;;;5.25;2.78;;;;;;;22.70;nan;18393.78;5031621;28;20600;-72
2023/05/30 09:20:22;;;;;;;4.20;2.90;;;;;;;22.51;nan;15425.81;5030626;28;20218;-69
2023/05/30 09:22:47;;;;;;;4.57;2.80;;;;;;;22.29;nan;17061.50;5028094;28;20225;-70
2023/05/30 09:25:15;;;;;;;3.55;2.38;;;;;;;22.01;nan;12780.69;5029288;28;20211;-71
2023/05/30 09:27:46;;;;;;;3.20;2.60;;;;;;;21.86;nan;10479.44;5030705;28;20207;-71
2023/05/30 09:30:12;;;;;;;4.15;2.83;;;;;;;22.17;nan;10488.31;5031505;28;20720;-71
2023/05/30 09:32:39;;;;;;;4.90;2.65;;;;;;;22.29;nan;8851.41;5030664;28;20190;-71
2023/05/30 09:35:09;;;;;;;3.47;2.35;;;;;;;22.23;nan;3606.59;5031171;28;20190;-69
2023/05/30 09:37:40;;;;;;;4.05;2.75;;;;;;;22.23;nan;5244.19;5030302;28;20179;-69
2023/05/30 09:40:11;;;;;;;3.85;2.78;;;;;;;22.10;nan;8846.25;5030600;28;20183;-71
2023/05/30 09:42:44;;;;;;;6.28;3.28;;;;;;;22.19;nan;6226.16;5031026;28;20191;-67
2023/05/30 09:45:13;;;;;;;3.88;2.83;;;;;;;22.22;nan;11145.91;5030283;28;20568;-70
2023/05/30 09:47:44;;;;;;;3.42;2.45;;;;;;;22.18;nan;8520.47;5026604;28;20211;-70
2023/05/30 09:50:12;;;;;;;9.13;3.15;;;;;;;22.10;nan;11798.59;5030516;28;20264;-71
2023/05/30 09:52:38;;;;;;;6.25;3.15;;;;;;;22.24;nan;9505.97;5034817;28;20175;-70
2023/05/30 09:55:06;;;;;;;4.68;2.97;;;;;;;21.93;nan;8186.50;5033549;28;20634;-71
2023/05/30 09:57:39;;;;;;;5.53;3.60;;;;;;;21.73;nan;5233.97;5065592;28;20274;-70
2023/05/30 10:00:13;;;;;;;5.25;3.20;;;;;;;21.88;nan;4582.25;5034005;28;20249;-70
2023/05/30 10:02:41;;;;;;;5.07;3.20;;;;;;;22.04;nan;331.44;5034873;28;20199;-70
2023/05/30 10:05:20;;;;;;;4.50;3.00;;;;;;;22.14;nan;-1629.13;5032818;28;20241;-70
2023/05/30 10:07:51;;;;;;;4.57;3.38;;;;;;;22.08;nan;-1629.69;5031136;28;20210;-70
2023/05/30 10:10:17;;;;;;;11.80;6.45;;;;;;;22.22;nan;-1628.41;5041820;28;20620;-69
2023/05/30 10:12:48;;;;;;;5.00;3.20;;;;;;;22.43;nan;-318.06;5033411;28;20194;-70
2023/05/30 10:15:13;;;;;;;5.03;2.88;;;;;;;22.48;nan;-1298.94;5038126;28;20262;-71
2023/05/30 10:17:53;;;;;;;4.65;3.22;;;;;;;22.38;nan;990.06;5034362;28;20281;-70
2023/05/30 10:20:21;;;;;;;4.53;3.00;;;;;;;22.77;nan;4599.38;5016424;28;20691;-68
2023/05/30 10:22:52;;;;;;;5.25;3.22;;;;;;;22.88;nan;7553.75;5033039;28;20211;-67
2023/05/30 10:25:18;;;;;;;4.38;3.28;;;;;;;22.85;nan;14780.44;5034493;28;20176;-69
2023/05/30 10:27:48;;;;;;;3.45;2.47;;;;;;;23.19;nan;24349.25;5032525;28;20227;-64
2023/05/30 10:30:20;;;;;;;3.92;2.70;;;;;;;23.22;nan;19404.09;5033379;28;20724;-62
2023/05/30 10:32:54;;;;;;;5.35;3.40;;;;;;;23.32;nan;10850.06;5032103;28;20635;-62
2023/05/30 10:35:20;;;;;;;4.53;2.97;;;;;;;23.47;nan;13486.09;5032423;28;20600;-62
2023/05/30 10:37:47;;;;;;;4.82;2.55;;;;;;;23.36;nan;18091.81;5034066;28;20174;-62
2023/05/30 10:40:30;;;;;;;3.97;2.80;;;;;;;23.71;nan;15799.50;5032850;28;20676;-62
2023/05/30 10:43:13;;;;;;;4.50;3.22;;;;;;;23.78;nan;26031.31;5027142;28;20171;-62
2023/05/30 10:46:00;;;;;;;5.22;2.80;;;;;;;23.92;nan;27361.19;5031789;28;20198;-60
2023/05/30 10:48:44;;;;;;;3.75;2.58;;;;;;;23.87;nan;28350.78;5031546;28;20179;-63
2023/05/30 10:51:11;;;;;;;3.83;2.80;;;;;;;24.05;nan;33658.97;5033503;28;20175;-63
2023/05/30 10:53:47;;;;;;;3.55;2.58;;;;;;;24.39;nan;44724.22;5031869;28;20633;-61
2023/05/30 10:56:34;;;;;;;3.05;2.20;;;;;;;24.70;nan;48684.03;5029449;28;20273;-62
2023/05/30 10:59:00;;;;;;;3.47;2.40;;;;;;;24.64;nan;54832.94;5017367;28;20602;-63
2023/05/30 11:01:30;;;;;;;2.65;2.03;;;;;;;24.85;nan;56192.81;5033275;28;20259;-64
2023/05/30 11:04:09;;;;;;;2.80;2.10;;;;;;;24.98;nan;48366.41;5032911;28;20187;-63
2023/05/30 11:06:52;;;;;;;3.38;2.45;;;;;;;24.99;nan;53308.09;5033639;28;20203;-61
2023/05/30 11:09:18;;;;;;;2.83;2.20;;;;;;;25.03;nan;55628.97;5032802;28;20633;-62
2023/05/30 11:11:45;;;;;;;2.50;2.10;;;;;;;24.92;nan;56155.75;5032707;28;20674;-62
2023/05/30 11:14:13;;;;;;;3.03;1.95;;;;;;;25.13;nan;55521.81;5033431;28;20179;-63
2023/05/30 11:16:54;;;;;;;2.83;2.00;;;;;;;24.97;nan;57628.16;5032791;28;20206;-62
2023/05/30 11:19:20;;;;;;;2.63;1.90;;;;;;;25.24;nan;59705.16;5030281;28;20281;-62
2023/05/30 11:22:03;;;;;;;1.92;1.60;;;;;;;25.35;nan;60595.25;5033331;28;20216;-60
2023/05/30 11:24:30;;;;;;;3.63;1.90;;;;;;;25.46;nan;60924.56;5032301;28;20203;-61
2023/05/30 11:27:07;;;;;;;2.90;2.03;;;;;;;25.57;nan;60760.50;5033020;28;20250;-62
2023/05/30 11:29:47;;;;;;;2.60;1.90;;;;;;;25.65;nan;61826.66;5032793;28;20576;-63
2023/05/30 11:32:20;;;;;;;2.35;1.88;;;;;;;25.42;nan;61880.22;5033141;28;20178;-63
2023/05/30 11:34:47;;;;;;;2.92;1.90;;;;;;;25.38;nan;61708.22;5033097;28;20160;-61
2023/05/30 11:37:12;;;;;;;2.67;1.80;;;;;;;25.36;nan;61917.88;5033074;28;20567;-63
2023/05/30 11:39:38;;;;;;;1.83;1.63;;;;;;;25.16;nan;61971.03;5032253;28;20649;-63
2023/05/30 11:42:05;;;;;;;1.60;1.50;;;;;;;25.47;nan;62283.06;5031908;28;20175;-64
2023/05/30 11:44:31;;;;;;;2.47;1.75;;;;;;;25.90;nan;62290.22;5032666;28;20180;-63
2023/05/30 11:47:09;;;;;;;2.40;1.67;;;;;;;26.14;nan;62332.19;5031454;28;20210;-61
2023/05/30 11:49:35;;;;;;;1.73;1.40;;;;;;;26.40;nan;62432.09;5032047;28;20567;-62